createdAt,value
2018-12-13T00:02:16.848Z,16.97
2018-12-13T00:04:45.894Z,18.15
2018-12-13T00:07:14.138Z,17.15
2018-12-13T00:09:42.323Z,19.15
2018-12-13T00:12:10.489Z,16.45
2018-12-13T00:14:38.795Z,19.23
2018-12-13T00:17:07.069Z,19.25
2018-12-13T00:19:35.251Z,16.12
2018-12-13T00:22:03.516Z,20.88
2018-12-13T00:24:31.897Z,22.42
2018-12-13T00:27:00.333Z,18.32
2018-12-13T00:29:29.456Z,21.87
2018-12-13T00:31:58.522Z,17.50
2018-12-13T00:34:27.389Z,27.35
2018-12-13T00:36:56.719Z,22.75
2018-12-13T00:39:31.589Z,23.30
2018-12-13T00:42:00.207Z,20.70
2018-12-13T00:44:30.719Z,27.75
2018-12-13T00:46:58.931Z,22.75
2018-12-13T00:49:27.317Z,27.50
2018-12-13T00:51:57.371Z,31.62
2018-12-13T00:54:25.549Z,28.87
2018-12-13T00:56:53.854Z,28.17
2018-12-13T00:59:22.118Z,28.23
2018-12-13T01:01:50.390Z,30.32
2018-12-13T01:04:18.717Z,24.25
2018-12-13T01:06:47.009Z,31.87
2018-12-13T01:09:15.354Z,32.40
2018-12-13T01:11:43.678Z,26.30
2018-12-13T01:14:11.938Z,42.78
2018-12-13T01:16:41.216Z,29.85
2018-12-13T01:19:09.572Z,39.70
2018-12-13T01:21:37.820Z,29.00
2018-12-13T01:24:06.400Z,38.53
2018-12-13T01:26:34.638Z,45.48
2018-12-13T01:29:02.846Z,36.35
2018-12-13T01:31:31.192Z,39.33
2018-12-13T01:34:00.210Z,36.17
2018-12-13T01:36:28.695Z,34.20
2018-12-13T01:38:56.946Z,39.90
2018-12-13T01:41:25.220Z,36.35
2018-12-13T01:43:53.428Z,33.58
2018-12-13T01:46:21.847Z,40.33
2018-12-13T01:48:50.033Z,42.20
2018-12-13T01:51:18.254Z,39.08
2018-12-13T01:53:46.502Z,39.45
2018-12-13T01:56:14.757Z,42.62
2018-12-13T01:58:42.975Z,38.45
2018-12-13T02:01:11.383Z,37.00
2018-12-13T02:03:39.711Z,36.68
2018-12-13T02:06:08.485Z,49.42
2018-12-13T02:08:36.749Z,42.62
2018-12-13T02:11:04.966Z,46.05
2018-12-13T02:13:33.281Z,40.10
2018-12-13T02:16:01.712Z,38.78
2018-12-13T02:18:36.535Z,44.80
2018-12-13T02:21:04.881Z,43.58
2018-12-13T02:23:33.263Z,43.90
2018-12-13T02:26:01.470Z,44.55
2018-12-13T02:28:29.716Z,48.55
2018-12-13T02:30:57.861Z,50.03
2018-12-13T02:33:26.563Z,51.80
2018-12-13T02:35:54.867Z,44.38
2018-12-13T02:38:23.130Z,40.65
2018-12-13T02:40:51.337Z,42.88
2018-12-13T02:43:19.547Z,40.30
2018-12-13T02:45:47.819Z,39.58
2018-12-13T02:48:16.114Z,52.13
2018-12-13T02:50:44.288Z,39.92
2018-12-13T02:53:12.476Z,41.25
2018-12-13T02:55:41.778Z,37.10
2018-12-13T02:58:10.022Z,35.92
2018-12-13T03:00:38.268Z,33.60
2018-12-13T03:03:06.716Z,41.35
2018-12-13T03:05:36.058Z,41.05
2018-12-13T03:08:04.700Z,40.75
2018-12-13T03:10:33.064Z,50.73
2018-12-13T03:13:02.145Z,41.00
2018-12-13T03:15:30.431Z,47.80
2018-12-13T03:17:58.681Z,34.13
2018-12-13T03:20:26.898Z,38.48
2018-12-13T03:22:55.172Z,42.90
2018-12-13T03:25:23.665Z,40.38
2018-12-13T03:27:51.899Z,40.35
2018-12-13T03:30:20.234Z,37.55
2018-12-13T03:32:48.472Z,40.65
2018-12-13T03:35:16.877Z,35.45
2018-12-13T03:37:46.010Z,42.08
2018-12-13T03:40:14.247Z,33.88
2018-12-13T03:42:42.566Z,41.20
2018-12-13T03:45:10.844Z,38.58
2018-12-13T03:47:39.198Z,40.67
2018-12-13T03:50:08.709Z,37.88
2018-12-13T03:52:37.513Z,31.12
2018-12-13T03:55:05.886Z,32.78
2018-12-13T03:57:34.384Z,30.62
2018-12-13T04:00:02.779Z,32.95
2018-12-13T04:02:31.778Z,26.60
2018-12-13T04:05:02.120Z,29.82
2018-12-13T04:07:30.654Z,33.95
2018-12-13T04:09:59.157Z,28.98
2018-12-13T04:12:27.396Z,25.45
2018-12-13T04:14:55.843Z,26.87
2018-12-13T04:17:24.848Z,25.80
2018-12-13T04:19:53.131Z,25.72
2018-12-13T04:22:22.647Z,27.13
2018-12-13T04:24:50.897Z,31.90
2018-12-13T04:27:19.177Z,28.98
2018-12-13T04:29:47.340Z,24.18
2018-12-13T04:32:15.522Z,29.20
2018-12-13T04:34:43.718Z,23.87
2018-12-13T04:37:11.953Z,33.55
2018-12-13T04:39:40.121Z,27.17
2018-12-13T04:42:08.350Z,27.93
2018-12-13T04:44:37.919Z,27.25
2018-12-13T04:47:06.373Z,36.90
2018-12-13T04:49:34.577Z,34.27
2018-12-13T04:52:02.898Z,37.17
2018-12-13T04:54:31.033Z,36.13
2018-12-13T04:57:00.464Z,46.95
2018-12-13T04:59:28.680Z,35.75
2018-12-13T05:01:56.967Z,35.10
2018-12-13T05:04:26.305Z,35.70
2018-12-13T05:06:54.762Z,32.53
2018-12-13T05:09:23.074Z,36.88
2018-12-13T05:11:51.230Z,44.93
2018-12-13T05:14:19.456Z,39.92
2018-12-13T05:16:47.638Z,36.90
2018-12-13T05:19:15.748Z,44.30
2018-12-13T05:21:45.229Z,39.50
2018-12-13T05:24:13.472Z,30.75
2018-12-13T05:26:41.741Z,37.13
2018-12-13T05:29:10.083Z,33.92
2018-12-13T05:31:38.250Z,33.70
2018-12-13T05:34:06.464Z,31.02
2018-12-13T05:36:34.667Z,33.10
2018-12-13T05:39:03.096Z,32.38
2018-12-13T05:41:31.226Z,26.95
2018-12-13T05:43:59.460Z,28.70
2018-12-13T05:46:27.910Z,36.10
2018-12-13T05:48:56.161Z,37.85
2018-12-13T05:51:24.674Z,31.80
2018-12-13T05:53:52.872Z,33.73
2018-12-13T05:56:21.180Z,30.00
2018-12-13T05:58:49.398Z,35.15
2018-12-13T06:01:17.610Z,31.00
2018-12-13T06:03:45.774Z,33.65
2018-12-13T06:06:14.152Z,25.65
2018-12-13T06:08:44.693Z,45.00
2018-12-13T06:11:13.888Z,29.40
2018-12-13T06:13:42.157Z,34.73
2018-12-13T06:16:10.410Z,36.33
2018-12-13T06:18:38.588Z,40.80
2018-12-13T06:21:11.851Z,33.45
2018-12-13T06:23:37.121Z,32.38
2018-12-13T06:26:05.314Z,41.55
2018-12-13T06:28:33.523Z,34.98
2018-12-13T06:31:01.733Z,34.65
2018-12-13T06:33:29.911Z,41.10
2018-12-13T06:35:58.049Z,36.53
2018-12-13T06:38:26.931Z,33.13
2018-12-13T06:40:55.213Z,44.67
2018-12-13T06:43:23.392Z,34.58
2018-12-13T06:45:51.543Z,40.50
2018-12-13T06:48:19.806Z,41.23
2018-12-13T06:50:48.013Z,37.85
2018-12-13T06:53:16.310Z,37.65
2018-12-13T06:55:44.580Z,32.55
2018-12-13T06:58:12.772Z,37.15
2018-12-13T07:00:41.022Z,35.43
2018-12-13T07:03:09.310Z,40.10
2018-12-13T07:05:37.511Z,38.85
2018-12-13T07:08:08.002Z,47.20
2018-12-13T07:10:35.991Z,38.13
2018-12-13T07:13:04.266Z,39.73
2018-12-13T07:15:32.746Z,45.78
2018-12-13T07:18:00.963Z,38.48
2018-12-13T07:20:29.153Z,32.65
2018-12-13T07:22:57.330Z,37.45
2018-12-13T07:25:25.638Z,40.12
2018-12-13T07:27:55.140Z,35.90
2018-12-13T07:30:23.472Z,32.48
2018-12-13T07:32:51.919Z,29.72
2018-12-13T07:35:20.144Z,31.60
2018-12-13T07:37:48.792Z,32.70
2018-12-13T07:40:17.058Z,36.75
2018-12-13T07:42:45.236Z,25.30
2018-12-13T07:45:13.575Z,30.60
2018-12-13T07:47:41.821Z,33.10
2018-12-13T07:50:10.185Z,32.17
2018-12-13T07:52:38.469Z,38.38
2018-12-13T07:55:06.732Z,32.13
2018-12-13T07:57:34.995Z,34.40
2018-12-13T08:00:03.414Z,34.33
2018-12-13T08:02:31.764Z,33.13
2018-12-13T08:05:00.134Z,34.13
2018-12-13T08:07:28.320Z,26.27
2018-12-13T08:09:56.520Z,29.90
2018-12-13T08:12:24.893Z,28.17
2018-12-13T08:14:53.125Z,31.85
2018-12-13T08:17:21.456Z,29.35
2018-12-13T08:19:49.752Z,35.55
2018-12-13T08:22:17.993Z,29.18
2018-12-13T08:24:46.261Z,27.70
2018-12-13T08:27:14.456Z,34.20
2018-12-13T08:29:42.722Z,33.13
2018-12-13T08:32:11.037Z,33.42
2018-12-13T08:34:39.259Z,30.75
2018-12-13T08:37:07.735Z,34.60
2018-12-13T08:39:36.034Z,28.27
2018-12-13T08:42:04.445Z,27.77
2018-12-13T08:44:32.758Z,27.67
2018-12-13T08:47:00.921Z,29.98
2018-12-13T08:49:29.152Z,27.30
2018-12-13T08:51:57.433Z,22.20
2018-12-13T08:54:26.615Z,28.67
2018-12-13T08:56:55.069Z,27.67
2018-12-13T08:59:23.519Z,23.95
2018-12-13T09:01:52.818Z,26.12
2018-12-13T09:04:21.174Z,26.85
2018-12-13T09:06:49.369Z,23.70
2018-12-13T09:09:17.672Z,24.85
2018-12-13T09:11:45.869Z,50.85
2018-12-13T09:14:14.362Z,35.92
2018-12-13T09:16:42.847Z,34.33
2018-12-13T09:19:11.104Z,25.68
2018-12-13T09:21:39.404Z,29.27
2018-12-13T09:24:07.547Z,26.02
2018-12-13T09:26:35.709Z,30.47
2018-12-13T09:29:04.058Z,29.12
2018-12-13T09:31:32.295Z,24.57
2018-12-13T09:34:00.548Z,27.15
2018-12-13T09:36:28.862Z,25.15
2018-12-13T09:38:57.086Z,25.88
2018-12-13T09:41:25.591Z,22.77
2018-12-13T09:43:53.772Z,23.90
2018-12-13T09:46:21.966Z,25.88
2018-12-13T09:48:50.808Z,27.65
2018-12-13T09:51:19.062Z,24.30
2018-12-13T09:53:47.300Z,30.88
2018-12-13T09:56:15.554Z,25.95
2018-12-13T09:58:43.726Z,25.60
2018-12-13T10:01:12.782Z,29.07
2018-12-13T10:03:42.120Z,25.35
2018-12-13T10:06:10.414Z,26.15
2018-12-13T10:08:38.710Z,26.42
2018-12-13T10:11:07.626Z,25.02
2018-12-13T10:13:36.900Z,23.45
2018-12-13T10:16:05.117Z,24.55
2018-12-13T10:21:21.028Z,19.50
2018-12-13T10:23:49.390Z,22.22
2018-12-13T10:26:17.715Z,19.87
2018-12-13T10:28:46.018Z,25.43
2018-12-13T10:31:14.186Z,22.98
2018-12-13T10:33:42.492Z,25.43
2018-12-13T10:36:10.912Z,28.52
2018-12-13T10:38:39.264Z,29.48
2018-12-13T10:41:14.310Z,19.98
2018-12-13T10:43:42.500Z,20.23
2018-12-13T10:46:10.826Z,20.12
2018-12-13T10:48:39.026Z,22.15
2018-12-13T10:51:07.218Z,24.07
2018-12-13T10:53:35.986Z,19.65
2018-12-13T10:56:04.268Z,21.20
2018-12-13T10:58:32.494Z,23.10
2018-12-13T11:01:06.130Z,20.70
2018-12-13T11:03:36.108Z,22.77
2018-12-13T11:06:04.775Z,18.10
2018-12-13T11:08:33.022Z,24.80
2018-12-13T11:11:01.302Z,20.97
2018-12-13T11:13:29.577Z,21.60
2018-12-13T11:15:58.193Z,20.82
2018-12-13T11:18:26.661Z,31.85
2018-12-13T11:20:54.903Z,24.18
2018-12-13T11:23:23.148Z,20.48
2018-12-13T11:25:51.363Z,18.87
2018-12-13T11:28:31.013Z,18.30
2018-12-13T11:30:59.295Z,20.40
2018-12-13T11:33:27.766Z,21.55
2018-12-13T11:35:56.003Z,19.07
2018-12-13T11:38:24.354Z,21.33
2018-12-13T11:40:52.717Z,20.48
2018-12-13T11:43:20.874Z,19.92
2018-12-13T11:45:49.174Z,20.97
2018-12-13T11:48:17.430Z,17.30
2018-12-13T11:50:45.797Z,16.35
2018-12-13T11:53:14.090Z,16.73
2018-12-13T11:55:42.638Z,21.23
2018-12-13T11:58:13.599Z,18.65
2018-12-13T12:00:41.793Z,20.00
2018-12-13T12:03:10.106Z,19.92
2018-12-13T12:05:38.541Z,19.65
2018-12-13T12:08:06.919Z,16.65
2018-12-13T12:10:35.116Z,22.62
2018-12-13T12:13:03.343Z,24.75
2018-12-13T12:15:31.474Z,19.15
2018-12-13T12:17:59.656Z,25.62
2018-12-13T12:20:27.848Z,23.07
2018-12-13T12:22:56.099Z,26.42
2018-12-13T12:25:24.415Z,27.55
2018-12-13T12:27:52.795Z,21.42
2018-12-13T12:30:21.205Z,25.30
2018-12-13T12:32:50.015Z,27.02
2018-12-13T12:35:25.293Z,25.15
2018-12-13T12:37:53.552Z,34.23
2018-12-13T12:40:21.865Z,26.30
2018-12-13T12:42:51.201Z,24.65
2018-12-13T12:45:19.566Z,24.47
2018-12-13T12:47:47.972Z,29.37
2018-12-13T12:50:16.189Z,31.10
2018-12-13T12:52:44.433Z,26.17
2018-12-13T12:55:12.676Z,30.20
2018-12-13T12:57:40.883Z,26.85
2018-12-13T13:00:09.989Z,33.38
2018-12-13T13:02:38.413Z,27.82
2018-12-13T13:05:07.017Z,19.02
2018-12-13T13:07:35.243Z,24.20
2018-12-13T13:10:03.907Z,31.25
2018-12-13T13:12:32.198Z,27.17
2018-12-13T13:15:00.635Z,27.35
2018-12-13T13:17:29.975Z,23.40
2018-12-13T13:19:58.223Z,26.23
2018-12-13T13:22:26.483Z,21.65
2018-12-13T13:24:54.840Z,27.37
2018-12-13T13:27:23.155Z,18.98
2018-12-13T13:29:51.418Z,27.40
2018-12-13T13:32:19.592Z,27.67
2018-12-13T13:34:47.865Z,25.12
2018-12-13T13:37:16.052Z,39.48
2018-12-13T13:39:44.279Z,29.85
2018-12-13T13:42:12.554Z,25.25
2018-12-13T13:44:41.048Z,23.52
2018-12-13T13:47:09.444Z,26.60
2018-12-13T13:49:37.870Z,24.18
2018-12-13T13:52:06.114Z,25.17
2018-12-13T13:54:34.385Z,24.30
2018-12-13T13:57:02.718Z,23.90
2018-12-13T13:59:30.975Z,24.35
2018-12-13T14:01:59.195Z,19.75
2018-12-13T14:04:27.444Z,18.45
2018-12-13T14:06:55.713Z,16.73
2018-12-13T14:09:24.128Z,19.42
2018-12-13T14:11:52.387Z,24.77
2018-12-13T14:14:20.716Z,26.82
2018-12-13T14:16:49.596Z,20.80
2018-12-13T14:19:17.933Z,19.02
2018-12-13T14:21:46.106Z,27.40
2018-12-13T14:24:14.321Z,23.85
2018-12-13T14:26:42.425Z,25.27
2018-12-13T14:29:10.616Z,20.88
2018-12-13T14:31:38.824Z,25.27
2018-12-13T14:34:07.049Z,28.23
2018-12-13T14:36:35.291Z,24.60
2018-12-13T14:39:05.703Z,27.13
2018-12-13T14:41:34.101Z,22.87
2018-12-13T14:44:02.715Z,28.85
2018-12-13T14:46:30.957Z,26.20
2018-12-13T14:48:59.465Z,26.25
2018-12-13T14:51:28.034Z,25.75
2018-12-13T14:53:56.337Z,28.00
2018-12-13T14:56:24.641Z,22.58
2018-12-13T14:58:52.858Z,28.38
2018-12-13T15:01:21.059Z,24.87
2018-12-13T15:03:49.256Z,25.23
2018-12-13T15:06:17.511Z,29.90
2018-12-13T15:08:45.641Z,29.77
2018-12-13T15:11:13.955Z,24.72
2018-12-13T15:13:42.270Z,29.32
2018-12-13T15:16:10.551Z,24.63
2018-12-13T15:18:38.687Z,32.78
2018-12-13T15:21:07.030Z,30.82
2018-12-13T15:23:35.398Z,24.55
2018-12-13T15:28:39.471Z,25.00
2018-12-13T15:31:07.710Z,27.90
2018-12-13T15:33:35.938Z,27.62
2018-12-13T15:36:04.229Z,21.95
2018-12-13T15:38:32.507Z,23.60
2018-12-13T15:41:00.751Z,27.10
2018-12-13T15:43:29.109Z,22.73
2018-12-13T15:45:57.431Z,24.55
2018-12-13T15:48:25.772Z,22.37
2018-12-13T15:50:54.236Z,25.70
2018-12-13T15:53:22.648Z,29.85
2018-12-13T15:55:50.976Z,23.47
2018-12-13T15:58:19.170Z,21.93
2018-12-13T16:00:47.384Z,24.07
2018-12-13T16:03:15.567Z,23.90
2018-12-13T16:05:43.799Z,29.10
2018-12-13T16:08:12.004Z,22.70
2018-12-13T16:10:40.320Z,25.65
2018-12-13T16:13:08.557Z,21.97
2018-12-13T16:15:36.740Z,19.17
2018-12-13T16:18:05.659Z,27.52
2018-12-13T16:20:33.939Z,25.65
2018-12-13T16:23:02.151Z,26.40
2018-12-13T16:25:30.480Z,26.10
2018-12-13T16:27:59.151Z,28.57
2018-12-13T16:30:27.705Z,24.45
2018-12-13T16:32:56.013Z,25.27
2018-12-13T16:35:24.517Z,28.00
2018-12-13T16:37:52.663Z,26.75
2018-12-13T16:40:20.853Z,24.77
2018-12-13T16:42:49.048Z,26.00
2018-12-13T16:45:17.307Z,26.75
2018-12-13T16:47:45.445Z,21.15
2018-12-13T16:50:13.665Z,30.62
2018-12-13T16:52:42.513Z,23.98
2018-12-13T16:55:10.759Z,31.00
2018-12-13T16:57:57.160Z,25.25
2018-12-13T17:00:37.243Z,26.97
2018-12-13T17:03:17.030Z,22.70
2018-12-13T17:05:45.266Z,25.85
2018-12-13T17:08:15.317Z,23.83
2018-12-13T17:10:46.413Z,24.70
2018-12-13T17:13:14.570Z,22.67
2018-12-13T17:15:44.439Z,24.63
2018-12-13T17:18:13.161Z,19.95
2018-12-13T17:20:41.319Z,31.27
2018-12-13T17:23:09.806Z,35.03
2018-12-13T17:25:39.417Z,22.32
2018-12-13T17:28:07.689Z,22.30
2018-12-13T17:30:39.731Z,21.23
2018-12-13T17:33:08.083Z,23.35
2018-12-13T17:35:36.508Z,35.23
2018-12-13T17:38:04.745Z,20.52
2018-12-13T17:40:33.232Z,26.07
2018-12-13T17:43:02.181Z,26.85
2018-12-13T17:45:33.138Z,26.27
2018-12-13T17:48:02.051Z,24.57
2018-12-13T17:50:30.353Z,26.82
2018-12-13T17:52:58.602Z,24.18
2018-12-13T17:55:26.881Z,26.17
2018-12-13T17:57:55.511Z,25.70
2018-12-13T18:00:23.844Z,27.58
2018-12-13T18:02:52.126Z,22.58
2018-12-13T18:05:21.314Z,24.72
2018-12-13T18:07:49.520Z,23.77
2018-12-13T18:10:17.787Z,23.95
2018-12-13T18:12:46.005Z,30.00
2018-12-13T18:15:14.694Z,32.10
2018-12-13T18:17:43.062Z,25.40
2018-12-13T18:20:11.305Z,27.32
2018-12-13T18:22:43.087Z,28.27
2018-12-13T18:25:11.387Z,23.80
2018-12-13T18:27:39.925Z,25.15
2018-12-13T18:30:09.845Z,32.40
2018-12-13T18:32:38.117Z,23.57
2018-12-13T18:35:06.741Z,27.30
2018-12-13T18:37:35.001Z,26.85
2018-12-13T18:40:03.833Z,32.95
2018-12-13T18:42:32.116Z,24.20
2018-12-13T18:45:00.443Z,20.00
2018-12-13T18:47:28.742Z,21.82
2018-12-13T18:49:56.986Z,22.02
2018-12-13T18:52:26.377Z,28.45
2018-12-13T18:54:54.605Z,17.05
2018-12-13T18:57:22.879Z,16.67
2018-12-13T18:59:51.267Z,17.90
2018-12-13T19:02:19.666Z,22.65
2018-12-13T19:04:47.973Z,21.00
2018-12-13T19:07:16.305Z,21.77
2018-12-13T19:09:44.742Z,20.60
2018-12-13T19:12:12.953Z,24.43
2018-12-13T19:14:41.137Z,27.45
2018-12-13T19:17:10.174Z,22.20
2018-12-13T19:19:38.449Z,21.45
2018-12-13T19:22:06.835Z,22.00
2018-12-13T19:24:35.612Z,30.90
2018-12-13T19:27:03.854Z,22.25
2018-12-13T19:29:32.096Z,18.27
2018-12-13T19:32:00.409Z,20.35
2018-12-13T19:34:28.586Z,20.85
2018-12-13T19:36:56.804Z,26.33
2018-12-13T19:39:25.397Z,23.57
2018-12-13T19:41:53.849Z,29.32
2018-12-13T19:44:22.260Z,28.02
2018-12-13T19:46:50.509Z,27.98
2018-12-13T19:49:18.760Z,24.12
2018-12-13T19:51:46.969Z,24.20
2018-12-13T19:54:15.259Z,23.92
2018-12-13T19:56:43.427Z,21.62
2018-12-13T19:59:11.640Z,22.82
2018-12-13T20:01:40.022Z,22.73
2018-12-13T20:04:08.383Z,26.62
2018-12-13T20:06:37.188Z,22.77
2018-12-13T20:09:09.810Z,23.98
2018-12-13T20:11:39.810Z,18.30
2018-12-13T20:14:08.160Z,21.77
2018-12-13T20:16:37.579Z,19.35
2018-12-13T20:19:06.000Z,19.05
2018-12-13T20:21:34.236Z,17.48
2018-12-13T20:24:04.379Z,18.60
2018-12-13T20:26:33.843Z,19.87
2018-12-13T20:29:03.359Z,23.55
2018-12-13T20:31:31.908Z,19.92
2018-12-13T20:34:00.116Z,19.62
2018-12-13T20:36:28.394Z,29.70
2018-12-13T20:38:56.727Z,22.15
2018-12-13T20:41:24.959Z,18.20
2018-12-13T20:43:53.224Z,21.33
2018-12-13T20:46:21.462Z,19.60
2018-12-13T20:48:49.910Z,18.95
2018-12-13T20:51:18.260Z,17.12
2018-12-13T20:53:46.498Z,22.75
2018-12-13T20:56:16.744Z,25.57
2018-12-13T20:58:46.070Z,21.15
2018-12-13T21:01:16.962Z,15.75
2018-12-13T21:03:45.318Z,20.70
2018-12-13T21:06:13.548Z,23.98
2018-12-13T21:08:41.744Z,19.95
2018-12-13T21:11:10.853Z,24.75
2018-12-13T21:13:39.048Z,24.52
2018-12-13T21:16:07.414Z,16.10
2018-12-13T21:18:35.662Z,22.55
2018-12-13T21:21:05.146Z,23.25
2018-12-13T21:23:35.235Z,36.95
2018-12-13T21:26:03.753Z,20.48
2018-12-13T21:28:31.984Z,25.80
2018-12-13T21:31:00.318Z,26.90
2018-12-13T21:33:28.610Z,25.80
2018-12-13T21:35:56.762Z,20.75
2018-12-13T21:38:25.074Z,23.02
2018-12-13T21:40:53.390Z,20.85
2018-12-13T21:43:21.589Z,18.98
2018-12-13T21:45:49.960Z,19.10
2018-12-13T21:48:18.499Z,23.20
2018-12-13T21:50:46.729Z,23.32
2018-12-13T21:53:15.360Z,24.57
2018-12-13T21:55:43.658Z,17.45
2018-12-13T21:58:12.187Z,23.92
2018-12-13T22:00:41.968Z,20.05
2018-12-13T22:03:10.247Z,20.17
2018-12-13T22:05:38.734Z,24.80
2018-12-13T22:08:10.802Z,22.10
2018-12-13T22:10:39.216Z,18.07
2018-12-13T22:13:07.432Z,29.25
2018-12-13T22:15:35.709Z,25.15
2018-12-13T22:18:04.248Z,16.82
2018-12-13T22:20:34.129Z,27.93
2018-12-13T22:23:02.293Z,23.62
2018-12-13T22:25:30.555Z,22.52
2018-12-13T22:28:00.268Z,20.45
2018-12-13T22:30:28.636Z,23.40
2018-12-13T22:32:56.835Z,22.48
2018-12-13T22:35:25.053Z,17.32
2018-12-13T22:37:53.304Z,27.30
2018-12-13T22:40:22.658Z,26.27
2018-12-13T22:42:50.877Z,33.15
2018-12-13T22:45:19.207Z,23.20
2018-12-13T22:47:47.402Z,25.43
2018-12-13T22:50:15.709Z,26.07
2018-12-13T22:52:44.331Z,24.27
2018-12-13T22:55:12.543Z,29.00
2018-12-13T22:57:40.773Z,27.27
2018-12-13T23:00:10.683Z,25.75
2018-12-13T23:02:39.172Z,36.03
2018-12-13T23:05:20.014Z,24.65
2018-12-13T23:07:48.346Z,28.15
2018-12-13T23:10:17.786Z,28.47
2018-12-13T23:12:47.887Z,27.90
2018-12-13T23:15:16.133Z,24.25
2018-12-13T23:17:44.349Z,27.35
2018-12-13T23:20:12.715Z,30.37
2018-12-13T23:22:40.917Z,30.72
2018-12-13T23:25:09.287Z,24.12
2018-12-13T23:27:37.504Z,21.95
2018-12-13T23:30:05.941Z,24.10
2018-12-13T23:32:34.268Z,30.08
2018-12-13T23:35:02.471Z,24.57
2018-12-13T23:37:30.809Z,22.45
2018-12-13T23:39:59.094Z,27.00
2018-12-13T23:42:27.263Z,20.50
2018-12-13T23:44:55.465Z,21.57
2018-12-13T23:47:24.504Z,19.12
2018-12-13T23:49:52.607Z,22.48
2018-12-13T23:52:20.805Z,24.23
2018-12-13T23:54:49.470Z,21.00
2018-12-13T23:57:17.699Z,15.08
2018-12-13T23:59:46.341Z,16.35
